Aérodrome :
LOGIN :

S'inscrire | Disclaimer

   EN    FR    IT 

 










Légende :    VFR   VFR Marginal   IFR   IFR Intensif   IFR Très Intensif
Visi : 
Plafond : 
>= 8 km
>= 3000ft
5 à 8 km
1000 à 3000 ft
1500m à 5 km
500 à 1000 ft
800 à 1500m
200 à 500 ft
< 800m
< 200 ft
Symboles :   Orages  Brouillard  Fortes neiges  Fortes précipitations  Vent > 20 kt
SIGMETs :   Divers  Orages  Givrage  Turbulence  Onde Orograph.  Cendres Volcan.







- Altitude de l'aérodrome : 62 ft
- Code IATA : TAN


GMTT - Tanger Ibn Batouta

DERNIER METAR :
  • 221800Z 09018KT CAVOK 29/09 Q1017 NOSIG

METARs EXPIRÉS :
  • 221730Z 09018KT CAVOK 30/09 Q1017 NOSIG
  • 221700Z 09021KT CAVOK 30/10 Q1017 NOSIG
  • 221630Z 09020KT CAVOK 31/09 Q1017 NOSIG
  • 221600Z 09018G29KT CAVOK 32/10 Q1017 NOSIG

TAF TAF GMTT
Valide du 22 à 18h jusqu'au 24 à 00h UTC


221700Z 2218/2324 08020KT CAVOK
Pas de NOTAMs connus pour ce terrain.
1 SIGMET publié pour la FIR Casablanca (GMMM) :
 
Orages noyés dans la masse
GMMM SIGMET 03 VALID 221730/222100 GMMC
GMMM CASABLANCA FIR EMBD TS OBS WI N3121 W00652 - N2751 W01011 - N30 13 W00954 - N3121 W01051 - N3121 W00652 TOP FL405 STNR WKN=



MET'MAP, la Météo Aéronautique d'un coup d'oeil ! - Copyright ORBIFLY Décembre 2007 - Disclaimer

ORBIFLY MET'MAP TEAM :

Programmation & Développement : Alexandra Zaïnal
Conception & Développement : Baudouin d'Aumeries
Co-Programmation & Développement : Marc-Olivier Méhu
Soutien technique & logistique : Manuel Goepfert

Contact : metmap@orbifly.com




SOURCES & CREDITS :

   NOAA